Time;durP1;ratioP1;P1;durP2;ratioP2;P2;SDS_P1;SDS_P2;PMS_P1;PMS_P2;Temp;Humidity;BMP_temperature;BMP_pressure;BME280_temperature;BME280_humidity;BME280_pressure;Samples;Min_cycle;Max_cycle;Signal;HPM_P1;HPM_P2
2023/06/21 00:01:03;;;;;;;;;;;19.40;74.40;;;;;;4164241;28;19917;-84
2023/06/21 00:03:25;;;;;;;;;;;19.40;74.30;;;;;;4166865;28;19917;-84
2023/06/21 00:05:45;;;;;;;;;;;19.40;73.60;;;;;;4152804;28;20411;-83
2023/06/21 00:08:09;;;;;;;;;;;19.40;73.60;;;;;;4149608;28;19917;-83
2023/06/21 00:10:35;;;;;;;;;;;19.50;72.90;;;;;;4164962;28;19916;-83
2023/06/21 00:12:56;;;;;;;;;;;19.40;72.50;;;;;;4154335;28;20084;-83
2023/06/21 00:15:17;;;;;;;;;;;19.40;72.50;;;;;;4150568;28;20462;-83
2023/06/21 00:17:43;;;;;;;;;;;19.40;73.50;;;;;;4152374;28;19917;-82
2023/06/21 00:20:12;;;;;;;;;;;19.40;74.40;;;;;;4165286;28;19925;-82
2023/06/21 00:22:36;;;;;;;;;;;19.40;72.90;;;;;;4149659;28;19913;-83
2023/06/21 00:24:57;;;;;;;;;;;19.40;73.80;;;;;;4162230;28;19925;-83
2023/06/21 00:27:18;;;;;;;;;;;19.40;73.80;;;;;;4150629;28;19917;-83
2023/06/21 00:29:38;;;;;;;;;;;19.40;72.80;;;;;;4150902;28;19918;-84
2023/06/21 00:32:00;;;;;;;;;;;19.50;74.50;;;;;;4163934;28;19924;-83
2023/06/21 00:34:20;;;;;;;;;;;19.40;74.70;;;;;;4154942;28;20001;-85
2023/06/21 00:36:42;;;;;;;;;;;19.40;74.50;;;;;;4163378;28;19921;-83
2023/06/21 00:39:05;;;;;;;;;;;19.40;74.90;;;;;;4167749;28;20186;-84
2023/06/21 00:41:26;;;;;;;;;;;19.40;74.70;;;;;;4167399;28;19913;-84
2023/06/21 00:43:47;;;;;;;;;;;19.40;74.60;;;;;;4164344;28;19940;-83
2023/06/21 00:46:08;;;;;;;;;;;19.40;74.60;;;;;;4164333;28;19925;-85
2023/06/21 00:48:29;;;;;;;;;;;19.40;74.30;;;;;;4167418;28;19921;-83
2023/06/21 00:50:49;;;;;;;;;;;19.40;74.60;;;;;;4164644;28;19914;-85
2023/06/21 00:53:10;;;;;;;;;;;19.40;74.50;;;;;;4162956;28;19939;-82
2023/06/21 00:55:35;;;;;;;;;;;19.40;74.90;;;;;;4163169;28;19924;-83
2023/06/21 00:58:01;;;;;;;;;;;19.40;75.30;;;;;;4165483;28;19941;-85
2023/06/21 01:00:25;;;;;;;;;;;19.30;75.50;;;;;;4147736;28;20918;-84
2023/06/21 01:02:49;;;;;;;;;;;19.30;75.60;;;;;;4160419;28;20122;-84
2023/06/21 01:05:10;;;;;;;;;;;19.20;75.90;;;;;;4160404;28;19933;-85
2023/06/21 01:08:01;;;;;;;;;;;19.20;76.20;;;;;;4160811;28;19928;-84
2023/06/21 01:10:34;;;;;;;;;;;19.20;76.40;;;;;;4147133;28;19917;-84
2023/06/21 01:13:13;;;;;;;;;;;19.20;76.40;;;;;;4171543;28;20211;-84
2023/06/21 01:15:50;;;;;;;;;;;19.10;76.90;;;;;;4157177;28;19944;-84
2023/06/21 01:18:13;;;;;;;;;;;19.10;77.30;;;;;;4158607;28;20311;-84
2023/06/21 01:20:34;;;;;;;;;;;19.10;76.50;;;;;;4147159;28;20022;-84
2023/06/21 01:23:22;;;;;;;;;;;19.10;76.60;;;;;;4167663;28;19925;-85
2023/06/21 01:26:15;;;;;;;;;;;19.10;76.30;;;;;;4157631;28;19917;-83
2023/06/21 01:29:00;;;;;;;;;;;19.10;76.00;;;;;;4158350;28;19929;-83
2023/06/21 01:31:22;;;;;;;;;;;19.10;75.90;;;;;;4157846;28;20012;-83
2023/06/21 01:33:57;;;;;;;;;;;19.10;75.90;;;;;;4143728;28;19925;-84
2023/06/21 01:36:36;;;;;;;;;;;19.10;75.90;;;;;;4160300;28;19925;-83
2023/06/21 01:39:00;;;;;;;;;;;19.10;76.00;;;;;;4156265;28;20560;-83
2023/06/21 01:41:30;;;;;;;;;;;19.20;76.00;;;;;;4159652;28;20374;-83
2023/06/21 01:43:59;;;;;;;;;;;19.20;75.80;;;;;;4157680;28;19925;-86
2023/06/21 01:46:54;;;;;;;;;;;19.20;75.70;;;;;;4160837;28;19913;-83
2023/06/21 01:49:21;;;;;;;;;;;19.20;75.70;;;;;;4140878;28;19925;-85
2023/06/21 01:52:13;;;;;;;;;;;19.20;75.60;;;;;;4156755;28;19947;-85
2023/06/21 01:55:02;;;;;;;;;;;19.20;75.60;;;;;;4146484;28;20319;-86
2023/06/21 01:57:29;;;;;;;;;;;19.20;75.60;;;;;;4140104;28;19920;-84
2023/06/21 02:00:08;;;;;;;;;;;19.30;75.60;;;;;;4157855;28;19960;-84
2023/06/21 02:05:54;;;;;;;;;;;19.30;75.60;;;;;;4154802;28;19923;-84
2023/06/21 02:08:30;;;;;;;;;;;19.20;75.40;;;;;;4135969;28;20403;-85
2023/06/21 02:10:51;;;;;;;;;;;19.30;75.40;;;;;;4146706;28;19924;-86
2023/06/21 02:13:13;;;;;;;;;;;19.30;75.50;;;;;;4143454;28;19964;-86
2023/06/21 02:15:34;;;;;;;;;;;19.30;75.20;;;;;;4153677;28;20276;-85
2023/06/21 02:17:55;;;;;;;;;;;19.30;75.00;;;;;;4136261;28;20432;-85
2023/06/21 02:20:16;;;;;;;;;;;19.40;74.70;;;;;;4157530;28;19928;-84
2023/06/21 02:22:39;;;;;;;;;;;19.30;75.40;;;;;;4154879;28;20440;-84
2023/06/21 02:25:00;;;;;;;;;;;19.30;74.60;;;;;;4157601;28;19979;-85
2023/06/21 02:27:21;;;;;;;;;;;19.30;74.70;;;;;;4154060;28;20015;-85
2023/06/21 02:29:45;;;;;;;;;;;19.30;74.60;;;;;;4156555;28;19913;-83
2023/06/21 02:32:06;;;;;;;;;;;19.20;74.60;;;;;;4156214;28;19917;-85
2023/06/21 02:34:29;;;;;;;;;;;19.20;74.70;;;;;;4160979;28;19922;-85
2023/06/21 02:36:53;;;;;;;;;;;19.20;74.70;;;;;;4161632;28;19968;-85
2023/06/21 02:39:14;;;;;;;;;;;19.30;74.80;;;;;;4149248;28;19971;-84
2023/06/21 02:41:35;;;;;;;;;;;19.30;74.80;;;;;;4161712;28;19967;-86
2023/06/21 02:43:55;;;;;;;;;;;19.20;74.80;;;;;;4158092;28;20105;-85
2023/06/21 02:46:20;;;;;;;;;;;19.20;74.70;;;;;;4164620;28;19960;-83
2023/06/21 02:48:53;;;;;;;;;;;19.20;74.70;;;;;;4148051;28;19924;-84
2023/06/21 02:51:33;;;;;;;;;;;19.20;74.80;;;;;;4167905;28;20001;-85
2023/06/21 02:53:54;;;;;;;;;;;19.30;74.80;;;;;;4149398;28;19917;-85
2023/06/21 02:56:23;;;;;;;;;;;19.30;74.80;;;;;;4159559;23;20410;-84
2023/06/21 02:58:44;;;;;;;;;;;19.30;74.60;;;;;;4146069;28;19953;-85
2023/06/21 03:01:15;;;;;;;;;;;19.30;75.20;;;;;;4149119;28;20406;-87
2023/06/21 03:03:36;;;;;;;;;;;19.30;74.90;;;;;;4146970;28;20256;-85
2023/06/21 03:06:00;;;;;;;;;;;19.30;75.00;;;;;;4144726;28;20844;-86
2023/06/21 03:08:21;;;;;;;;;;;19.20;75.60;;;;;;4147978;28;19913;-85
2023/06/21 03:10:42;;;;;;;;;;;19.30;74.80;;;;;;4134549;28;19914;-85
2023/06/21 03:13:03;;;;;;;;;;;19.20;74.80;;;;;;4143962;28;19913;-83
2023/06/21 03:15:24;;;;;;;;;;;19.30;74.80;;;;;;4145026;23;19933;-85
2023/06/21 03:17:45;;;;;;;;;;;19.20;74.70;;;;;;4166950;28;19953;-85
2023/06/21 03:20:16;;;;;;;;;;;19.30;74.80;;;;;;4164745;28;19917;-87
2023/06/21 03:22:41;;;;;;;;;;;19.30;74.70;;;;;;4161553;28;19936;-86
2023/06/21 03:25:08;;;;;;;;;;;19.30;74.70;;;;;;4147410;28;19922;-87
2023/06/21 03:27:39;;;;;;;;;;;19.20;74.70;;;;;;4149521;28;19921;-83
2023/06/21 03:30:12;;;;;;;;;;;19.20;74.50;;;;;;4160873;28;20509;-84
2023/06/21 03:32:51;;;;;;;;;;;19.30;74.50;;;;;;4162199;28;19924;-85
2023/06/21 03:35:29;;;;;;;;;;;19.30;74.40;;;;;;4161846;28;19929;-84
2023/06/21 03:37:50;;;;;;;;;;;19.30;74.50;;;;;;4165210;28;19913;-83
2023/06/21 03:40:13;;;;;;;;;;;19.30;74.60;;;;;;4165809;28;19921;-86
2023/06/21 03:42:34;;;;;;;;;;;19.30;74.70;;;;;;4159124;28;19963;-84
2023/06/21 03:44:54;;;;;;;;;;;19.20;74.60;;;;;;4159717;28;20052;-83
2023/06/21 03:47:38;;;;;;;;;;;19.30;74.60;;;;;;4167060;28;19927;-85
2023/06/21 03:50:30;;;;;;;;;;;;;;;;;;;;;
2023/06/21 03:53:05;;;;;;;;;;;19.20;74.50;;;;;;4166127;28;20230;-82
2023/06/21 03:55:29;;;;;;;;;;;19.20;74.50;;;;;;4255337;23;19926;-86
2023/06/21 03:58:16;;;;;;;;;;;19.20;74.40;;;;;;4147219;28;19941;-84
2023/06/21 04:00:37;;;;;;;;;;;19.20;74.30;;;;;;4148121;28;19921;-83
2023/06/21 04:03:00;;;;;;;;;;;19.20;74.50;;;;;;4134612;28;19926;-86
2023/06/21 04:05:22;;;;;;;;;;;19.20;74.40;;;;;;4148492;28;19921;-84
2023/06/21 04:07:43;;;;;;;;;;;19.20;74.40;;;;;;4150764;28;19918;-83
2023/06/21 04:10:04;;;;;;;;;;;19.20;74.50;;;;;;4146318;28;19914;-84
2023/06/21 04:12:26;;;;;;;;;;;19.20;74.60;;;;;;4140989;28;20472;-84
2023/06/21 04:14:53;;;;;;;;;;;19.30;74.60;;;;;;4139709;28;20332;-85
2023/06/21 04:17:17;;;;;;;;;;;19.20;74.70;;;;;;4145430;28;19996;-83
2023/06/21 04:19:38;;;;;;;;;;;19.20;75.00;;;;;;4140168;28;19985;-83
2023/06/21 04:22:01;;;;;;;;;;;19.30;75.40;;;;;;4130244;28;20033;-84
2023/06/21 04:24:22;;;;;;;;;;;19.30;75.70;;;;;;4146133;28;20004;-82
2023/06/21 04:26:43;;;;;;;;;;;19.30;76.00;;;;;;4147064;28;20021;-84
2023/06/21 04:29:07;;;;;;;;;;;19.30;76.20;;;;;;4139138;28;20000;-83
2023/06/21 04:31:37;;;;;;;;;;;19.40;76.40;;;;;;4143932;28;20342;-85
2023/06/21 04:34:01;;;;;;;;;;;19.40;76.50;;;;;;4126918;28;21113;-82
2023/06/21 04:36:22;;;;;;;;;;;19.50;76.90;;;;;;4141253;28;19922;-85
2023/06/21 04:38:43;;;;;;;;;;;19.50;76.60;;;;;;4141167;28;19918;-85
2023/06/21 04:41:04;;;;;;;;;;;19.50;76.70;;;;;;4142756;28;19913;-83
2023/06/21 04:43:25;;;;;;;;;;;19.50;76.20;;;;;;4143301;28;19929;-85
2023/06/21 04:45:48;;;;;;;;;;;19.50;75.90;;;;;;4137338;28;19928;-83
2023/06/21 04:48:17;;;;;;;;;;;19.50;75.60;;;;;;4131028;28;19921;-85
2023/06/21 04:50:38;;;;;;;;;;;19.50;75.40;;;;;;4133681;28;20273;-83
2023/06/21 04:52:59;;;;;;;;;;;19.50;75.00;;;;;;4141045;28;20292;-85
2023/06/21 04:55:20;;;;;;;;;;;19.40;74.90;;;;;;4140855;28;19960;-83
2023/06/21 04:57:41;;;;;;;;;;;19.50;74.90;;;;;;4128470;28;19932;-86
2023/06/21 05:00:06;;;;;;;;;;;19.40;74.70;;;;;;4139456;28;19920;-85
2023/06/21 05:02:27;;;;;;;;;;;19.40;75.30;;;;;;4132248;28;20076;-84
2023/06/21 05:04:48;;;;;;;;;;;19.40;75.40;;;;;;4142385;28;19921;-85
2023/06/21 05:07:09;;;;;;;;;;;19.40;75.10;;;;;;4143257;28;20453;-84
2023/06/21 05:09:29;;;;;;;;;;;19.40;75.40;;;;;;4128208;28;19964;-85
2023/06/21 05:11:50;;;;;;;;;;;19.50;75.40;;;;;;4141711;28;19928;-84
2023/06/21 05:14:11;;;;;;;;;;;19.40;75.10;;;;;;4142979;28;19924;-83
2023/06/21 05:16:35;;;;;;;;;;;19.50;75.30;;;;;;4134054;28;19945;-86
2023/06/21 05:18:55;;;;;;;;;;;19.50;75.90;;;;;;4144810;28;19922;-83
2023/06/21 05:21:16;;;;;;;;;;;19.50;75.70;;;;;;4142226;28;19980;-85
2023/06/21 05:23:37;;;;;;;;;;;19.50;75.30;;;;;;4140697;28;19917;-85
2023/06/21 05:25:58;;;;;;;;;;;19.50;76.00;;;;;;4134205;28;19936;-83
2023/06/21 05:28:31;;;;;;;;;;;19.60;76.20;;;;;;4135635;28;20607;-84
2023/06/21 05:30:52;;;;;;;;;;;19.60;75.50;;;;;;4127240;28;19918;-83
2023/06/21 05:33:14;;;;;;;;;;;19.60;75.70;;;;;;4125624;28;19993;-85
2023/06/21 05:35:49;;;;;;;;;;;19.60;76.10;;;;;;4128173;28;19918;-85
2023/06/21 05:38:09;;;;;;;;;;;19.70;76.80;;;;;;4123890;28;20437;-85
2023/06/21 05:40:30;;;;;;;;;;;19.70;77.10;;;;;;4145785;28;19940;-84
2023/06/21 05:42:51;;;;;;;;;;;19.80;77.10;;;;;;4139132;28;20383;-84
2023/06/21 05:45:12;;;;;;;;;;;19.80;77.50;;;;;;4137587;28;19925;-83
2023/06/21 05:47:33;;;;;;;;;;;19.80;77.40;;;;;;4147035;28;19976;-83
2023/06/21 05:49:55;;;;;;;;;;;19.90;77.30;;;;;;4143113;28;20535;-84
2023/06/21 05:52:15;;;;;;;;;;;19.90;77.60;;;;;;4137981;28;20328;-83
2023/06/21 05:54:41;;;;;;;;;;;20.00;77.40;;;;;;4129069;28;19922;-85
2023/06/21 05:57:03;;;;;;;;;;;19.90;76.90;;;;;;4134691;28;19926;-83
2023/06/21 05:59:23;;;;;;;;;;;20.00;76.30;;;;;;4139664;28;19980;-82
2023/06/21 06:01:53;;;;;;;;;;;20.00;76.20;;;;;;4140279;28;19922;-85
2023/06/21 06:04:14;;;;;;;;;;;19.90;76.40;;;;;;4135896;28;19921;-82
2023/06/21 06:06:35;;;;;;;;;;;20.00;77.10;;;;;;4126070;28;19926;-83
2023/06/21 06:08:56;;;;;;;;;;;20.00;76.60;;;;;;4140063;28;20007;-83
2023/06/21 06:11:20;;;;;;;;;;;20.10;76.50;;;;;;4128832;28;20395;-83
2023/06/21 06:13:41;;;;;;;;;;;20.10;76.60;;;;;;4144821;28;19975;-83
2023/06/21 06:16:02;;;;;;;;;;;20.10;76.00;;;;;;4140602;28;19939;-84
2023/06/21 06:18:23;;;;;;;;;;;20.10;75.90;;;;;;4140576;28;19921;-83
2023/06/21 06:20:44;;;;;;;;;;;20.10;75.80;;;;;;4136743;28;19922;-85
2023/06/21 06:23:08;;;;;;;;;;;20.10;76.30;;;;;;4139738;28;19914;-81
2023/06/21 06:25:29;;;;;;;;;;;20.10;76.10;;;;;;4138808;28;20005;-82
2023/06/21 06:27:50;;;;;;;;;;;20.10;75.60;;;;;;4134386;28;19913;-84
2023/06/21 06:30:11;;;;;;;;;;;20.20;75.30;;;;;;4129946;28;19914;-82
2023/06/21 06:32:32;;;;;;;;;;;20.20;75.80;;;;;;4136658;28;19918;-83
2023/06/21 06:34:56;;;;;;;;;;;20.20;75.50;;;;;;4132367;28;20024;-83
2023/06/21 06:37:17;;;;;;;;;;;20.30;75.40;;;;;;4126986;28;19937;-84
2023/06/21 06:39:38;;;;;;;;;;;20.30;75.30;;;;;;4126389;28;19921;-82
2023/06/21 06:41:58;;;;;;;;;;;20.40;75.70;;;;;;4134364;28;19913;-82
2023/06/21 06:44:19;;;;;;;;;;;20.40;75.50;;;;;;4140222;28;19925;-82
2023/06/21 06:46:40;;;;;;;;;;;20.40;74.80;;;;;;4122431;28;19922;-82
2023/06/21 06:49:01;;;;;;;;;;;20.50;74.50;;;;;;4120555;28;19993;-81
2023/06/21 06:51:22;;;;;;;;;;;20.50;73.90;;;;;;4139330;28;19921;-84
2023/06/21 06:53:43;;;;;;;;;;;20.50;73.70;;;;;;4139431;28;20012;-82
2023/06/21 06:56:03;;;;;;;;;;;20.60;74.60;;;;;;4135312;28;19921;-83
2023/06/21 06:58:24;;;;;;;;;;;20.60;74.10;;;;;;4126884;28;20407;-80
2023/06/21 07:00:45;;;;;;;;;;;20.60;73.80;;;;;;4133032;28;19951;-82
2023/06/21 07:03:06;;;;;;;;;;;20.70;74.00;;;;;;4129619;28;20297;-83
2023/06/21 07:05:29;;;;;;;;;;;20.70;74.10;;;;;;4145680;28;19993;-83
2023/06/21 07:07:50;;;;;;;;;;;20.70;74.10;;;;;;4140831;28;19924;-83
2023/06/21 07:10:11;;;;;;;;;;;20.80;74.10;;;;;;4135980;28;20290;-83
2023/06/21 07:12:32;;;;;;;;;;;20.80;74.60;;;;;;4139552;28;19924;-82
2023/06/21 07:14:53;;;;;;;;;;;20.90;74.60;;;;;;4145093;28;19913;-83
2023/06/21 07:17:14;;;;;;;;;;;20.90;74.10;;;;;;4143873;28;19956;-84
2023/06/21 07:19:34;;;;;;;;;;;21.00;74.00;;;;;;4127280;28;20408;-83
2023/06/21 07:21:55;;;;;;;;;;;21.00;73.80;;;;;;4142264;28;20003;-83
2023/06/21 07:24:16;;;;;;;;;;;21.10;73.90;;;;;;4143319;28;20068;-83
2023/06/21 07:26:38;;;;;;;;;;;21.10;73.80;;;;;;4152451;28;19995;-84
2023/06/21 07:29:01;;;;;;;;;;;21.20;73.70;;;;;;4151371;28;19913;-83
2023/06/21 07:31:22;;;;;;;;;;;21.30;73.50;;;;;;4135819;28;19918;-83
2023/06/21 07:33:43;;;;;;;;;;;21.30;73.20;;;;;;4149605;28;19923;-84
2023/06/21 07:36:04;;;;;;;;;;;21.40;73.00;;;;;;4143448;28;19917;-83
2023/06/21 07:38:24;;;;;;;;;;;21.30;72.70;;;;;;4143140;28;19918;-84
2023/06/21 07:40:45;;;;;;;;;;;21.30;72.20;;;;;;4148975;28;19913;-83
2023/06/21 07:43:06;;;;;;;;;;;21.40;71.80;;;;;;4145091;28;20426;-83
2023/06/21 07:45:32;;;;;;;;;;;21.40;71.80;;;;;;4143866;28;19960;-84
2023/06/21 07:47:53;;;;;;;;;;;21.50;71.90;;;;;;4146894;28;19917;-83
2023/06/21 07:50:14;;;;;;;;;;;21.50;71.50;;;;;;4143702;28;19957;-81
2023/06/21 07:52:35;;;;;;;;;;;21.50;71.00;;;;;;4143544;28;19925;-84
2023/06/21 07:54:56;;;;;;;;;;;21.60;71.40;;;;;;4147429;28;19920;-84
2023/06/21 07:57:17;;;;;;;;;;;21.60;71.50;;;;;;4141560;28;19984;-84
2023/06/21 07:59:38;;;;;;;;;;;21.70;71.30;;;;;;4146097;28;20291;-82
2023/06/21 08:01:58;;;;;;;;;;;21.70;71.10;;;;;;4145693;28;19933;-84
2023/06/21 08:04:25;;;;;;;;;;;21.70;70.70;;;;;;4133693;28;19918;-84
2023/06/21 08:06:46;;;;;;;;;;;21.70;70.30;;;;;;4142846;28;20357;-84
2023/06/21 08:09:10;;;;;;;;;;;21.80;70.20;;;;;;4142285;28;19926;-81
2023/06/21 08:11:32;;;;;;;;;;;21.90;70.30;;;;;;4142720;28;19960;-82
2023/06/21 08:13:53;;;;;;;;;;;21.90;69.80;;;;;;4130892;28;19918;-84
2023/06/21 08:16:14;;;;;;;;;;;21.90;69.80;;;;;;4130431;28;19922;-85
2023/06/21 08:18:43;;;;;;;;;;;22.00;69.60;;;;;;4140165;28;19928;-83
2023/06/21 08:21:08;;;;;;;;;;;22.00;68.70;;;;;;4143858;28;20433;-83
2023/06/21 08:23:34;;;;;;;;;;;22.00;67.80;;;;;;4137871;28;20620;-84
2023/06/21 08:25:55;;;;;;;;;;;22.10;68.20;;;;;;4146677;28;19922;-82
2023/06/21 08:28:19;;;;;;;;;;;22.10;66.50;;;;;;4143757;28;20254;-83
2023/06/21 08:30:39;;;;;;;;;;;22.10;66.90;;;;;;4140819;28;19913;-83
2023/06/21 08:33:00;;;;;;;;;;;22.20;67.60;;;;;;4128232;28;21074;-81
2023/06/21 08:35:21;;;;;;;;;;;22.20;68.00;;;;;;4143379;28;19981;-84
2023/06/21 08:37:52;;;;;;;;;;;22.30;66.90;;;;;;4141828;28;19975;-83
2023/06/21 08:40:14;;;;;;;;;;;22.30;66.20;;;;;;4141089;28;20309;-82
2023/06/21 08:42:35;;;;;;;;;;;22.30;64.40;;;;;;4138445;28;19932;-82
2023/06/21 08:44:56;;;;;;;;;;;22.30;63.90;;;;;;4143795;28;19918;-82
2023/06/21 08:47:17;;;;;;;;;;;22.30;63.80;;;;;;4147574;28;19918;-82
2023/06/21 08:49:40;;;;;;;;;;;22.40;64.50;;;;;;4140617;28;20161;-83
2023/06/21 08:52:02;;;;;;;;;;;22.40;64.60;;;;;;4133129;28;21659;-82
2023/06/21 08:54:24;;;;;;;;;;;22.50;66.30;;;;;;4145149;28;19940;-83
2023/06/21 08:56:46;;;;;;;;;;;22.60;65.70;;;;;;4140180;28;19928;-83
2023/06/21 08:59:10;;;;;;;;;;;22.60;65.40;;;;;;4146412;28;20406;-84
2023/06/21 09:01:37;;;;;;;;;;;22.70;64.70;;;;;;4147400;28;20012;-84
2023/06/21 09:03:58;;;;;;;;;;;22.70;64.40;;;;;;4143379;28;19921;-84
2023/06/21 09:06:22;;;;;;;;;;;22.80;64.90;;;;;;4144060;28;19925;-84
2023/06/21 09:08:44;;;;;;;;;;;22.90;65.60;;;;;;4140811;28;19917;-83
2023/06/21 09:11:07;;;;;;;;;;;23.00;64.40;;;;;;4136699;28;19988;-83
2023/06/21 09:13:29;;;;;;;;;;;23.10;65.10;;;;;;4139934;28;19913;-83
2023/06/21 09:15:51;;;;;;;;;;;23.10;64.80;;;;;;4131589;28;19925;-83
2023/06/21 09:18:12;;;;;;;;;;;23.10;64.40;;;;;;4146428;28;20375;-85
2023/06/21 09:20:33;;;;;;;;;;;23.20;63.60;;;;;;4145544;28;19914;-85
2023/06/21 09:22:57;;;;;;;;;;;23.20;63.10;;;;;;4140041;28;20103;-85
2023/06/21 09:25:18;;;;;;;;;;;23.30;63.30;;;;;;4143764;28;20303;-85
2023/06/21 09:27:39;;;;;;;;;;;23.30;63.50;;;;;;4141738;28;20642;-83
2023/06/21 09:30:00;;;;;;;;;;;23.30;63.90;;;;;;4149606;28;19917;-84
2023/06/21 09:32:22;;;;;;;;;;;23.30;63.50;;;;;;4147494;28;19917;-84
2023/06/21 09:34:45;;;;;;;;;;;23.30;63.30;;;;;;4141780;28;20311;-84
2023/06/21 09:37:06;;;;;;;;;;;23.30;63.70;;;;;;4142511;28;20339;-84
2023/06/21 09:39:28;;;;;;;;;;;23.30;63.20;;;;;;4153743;28;19917;-83
2023/06/21 09:41:50;;;;;;;;;;;23.30;62.80;;;;;;4152564;28;19914;-84
2023/06/21 09:44:13;;;;;;;;;;;23.30;62.00;;;;;;4144098;28;19928;-82
2023/06/21 09:46:36;;;;;;;;;;;23.30;62.30;;;;;;4142066;28;19917;-82
2023/06/21 09:49:07;;;;;;;;;;;23.40;62.40;;;;;;4143727;28;19921;-85
2023/06/21 09:51:28;;;;;;;;;;;23.40;61.90;;;;;;4146999;28;19920;-83
2023/06/21 09:53:52;;;;;;;;;;;23.50;62.70;;;;;;4135737;28;19997;-83
2023/06/21 09:56:20;;;;;;;;;;;23.60;62.00;;;;;;4145028;28;19923;-83
2023/06/21 09:58:41;;;;;;;;;;;23.60;61.70;;;;;;4126183;28;19917;-84
2023/06/21 10:01:06;;;;;;;;;;;23.70;60.90;;;;;;4136569;28;19917;-84
2023/06/21 10:03:27;;;;;;;;;;;23.70;60.80;;;;;;4141366;28;19918;-84
2023/06/21 10:05:54;;;;;;;;;;;23.80;60.70;;;;;;4138067;28;20379;-83
2023/06/21 10:08:21;;;;;;;;;;;23.90;60.60;;;;;;4142327;28;20370;-83
2023/06/21 10:10:45;;;;;;;;;;;23.90;60.00;;;;;;4138684;28;19922;-83
2023/06/21 10:13:06;;;;;;;;;;;24.00;59.70;;;;;;4137973;28;20004;-82
2023/06/21 10:15:27;;;;;;;;;;;24.10;58.80;;;;;;4123763;28;19921;-85
2023/06/21 10:17:47;;;;;;;;;;;24.10;59.50;;;;;;4128311;28;20024;-83
2023/06/21 10:20:12;;;;;;;;;;;24.20;58.90;;;;;;4138767;28;20418;-84
2023/06/21 10:22:33;;;;;;;;;;;24.20;58.40;;;;;;4122788;28;19929;-84
2023/06/21 10:24:55;;;;;;;;;;;24.30;58.20;;;;;;4129466;28;20036;-83
2023/06/21 10:27:17;;;;;;;;;;;24.40;58.10;;;;;;4138585;28;19940;-82
2023/06/21 10:29:39;;;;;;;;;;;24.40;58.20;;;;;;4136963;28;19965;-84
2023/06/21 10:32:01;;;;;;;;;;;24.30;56.90;;;;;;4138799;28;20038;-84
2023/06/21 10:34:24;;;;;;;;;;;24.40;57.20;;;;;;4132351;28;20180;-84
2023/06/21 10:36:48;;;;;;;;;;;24.30;57.10;;;;;;4136165;28;20014;-85
2023/06/21 10:39:32;;;;;;;;;;;24.30;57.10;;;;;;4137154;28;20195;-84
2023/06/21 10:41:53;;;;;;;;;;;24.20;56.80;;;;;;4133836;28;19924;-83
2023/06/21 10:44:16;;;;;;;;;;;24.20;58.00;;;;;;4139450;28;20041;-83
2023/06/21 10:46:41;;;;;;;;;;;24.10;57.40;;;;;;4133328;28;19917;-85
2023/06/21 10:49:06;;;;;;;;;;;24.10;56.70;;;;;;4132980;28;19917;-84
2023/06/21 10:51:27;;;;;;;;;;;24.10;56.30;;;;;;4143862;28;20005;-83
2023/06/21 10:53:49;;;;;;;;;;;24.10;56.50;;;;;;4120101;28;19929;-82
2023/06/21 10:56:13;;;;;;;;;;;24.10;56.50;;;;;;4137378;28;19918;-83
2023/06/21 10:58:34;;;;;;;;;;;24.20;56.80;;;;;;4121866;28;19918;-83
2023/06/21 11:00:58;;;;;;;;;;;24.20;56.40;;;;;;4139806;28;19960;-83
2023/06/21 11:03:28;;;;;;;;;;;24.20;56.30;;;;;;4136380;28;19922;-83
2023/06/21 11:05:55;;;;;;;;;;;24.20;56.20;;;;;;4120415;28;19925;-83
2023/06/21 11:08:16;;;;;;;;;;;24.20;55.80;;;;;;4134259;28;20132;-84
2023/06/21 11:10:39;;;;;;;;;;;24.20;55.20;;;;;;4137421;28;20148;-83
2023/06/21 11:13:00;;;;;;;;;;;24.20;54.80;;;;;;4136973;28;19984;-83
2023/06/21 11:15:24;;;;;;;;;;;24.20;55.70;;;;;;4142410;28;19937;-84
2023/06/21 11:17:53;;;;;;;;;;;24.20;55.70;;;;;;4136717;28;19967;-84
2023/06/21 11:20:22;;;;;;;;;;;24.20;54.80;;;;;;4137010;28;19924;-84
2023/06/21 11:22:54;;;;;;;;;;;24.10;55.00;;;;;;4125310;28;19917;-84
2023/06/21 11:25:16;;;;;;;;;;;24.10;55.10;;;;;;4138211;28;20024;-85
2023/06/21 11:27:36;;;;;;;;;;;24.10;55.20;;;;;;4122902;28;20138;-82
2023/06/21 11:30:09;;;;;;;;;;;24.10;54.60;;;;;;4126690;28;20025;-83
2023/06/21 11:32:30;;;;;;;;;;;24.00;54.40;;;;;;4139866;28;19952;-82
2023/06/21 11:34:53;;;;;;;;;;;24.00;54.60;;;;;;4174045;23;19931;-81
2023/06/21 11:37:33;;;;;;;;;;;24.00;54.40;;;;;;4137086;28;19937;-84
2023/06/21 11:39:57;;;;;;;;;;;23.90;54.50;;;;;;4129799;28;19960;-81
2023/06/21 11:42:18;;;;;;;;;;;23.90;54.10;;;;;;4122214;28;19925;-83
2023/06/21 11:44:39;;;;;;;;;;;23.90;54.30;;;;;;4134672;28;19921;-82
2023/06/21 11:47:16;;;;;;;;;;;23.90;54.30;;;;;;4132934;28;20890;-81
2023/06/21 11:49:44;;;;;;;;;;;23.90;53.60;;;;;;4135148;28;19917;-83
2023/06/21 11:52:05;;;;;;;;;;;23.90;53.40;;;;;;4121673;28;20371;-85
2023/06/21 11:54:35;;;;;;;;;;;23.90;53.80;;;;;;4140664;28;19971;-83
2023/06/21 11:56:56;;;;;;;;;;;23.90;53.70;;;;;;4138813;28;20036;-83
2023/06/21 11:59:17;;;;;;;;;;;23.80;53.40;;;;;;4138801;28;19918;-83
2023/06/21 12:01:41;;;;;;;;;;;23.90;53.60;;;;;;4138347;28;19921;-82
2023/06/21 12:04:02;;;;;;;;;;;23.90;53.50;;;;;;4135106;28;19929;-83
2023/06/21 12:06:23;;;;;;;;;;;23.80;53.60;;;;;;4139818;28;19929;-83
2023/06/21 12:08:44;;;;;;;;;;;23.80;53.60;;;;;;4141618;28;19928;-82
2023/06/21 12:11:06;;;;;;;;;;;23.80;52.70;;;;;;4141538;28;19918;-85
2023/06/21 12:13:27;;;;;;;;;;;23.80;53.20;;;;;;4142306;28;19980;-83
2023/06/21 12:15:54;;;;;;;;;;;23.70;52.90;;;;;;4141851;28;20569;-83
2023/06/21 12:18:15;;;;;;;;;;;23.70;53.10;;;;;;4143346;28;19944;-81
2023/06/21 12:20:37;;;;;;;;;;;23.70;53.00;;;;;;4145346;28;19917;-82
2023/06/21 12:22:59;;;;;;;;;;;23.60;52.40;;;;;;4142987;28;19925;-82
2023/06/21 12:25:22;;;;;;;;;;;23.60;52.80;;;;;;4134574;28;19929;-82
2023/06/21 12:27:51;;;;;;;;;;;23.60;52.60;;;;;;4141598;28;19928;-81
2023/06/21 12:30:12;;;;;;;;;;;23.60;53.10;;;;;;4127658;28;19941;-82
2023/06/21 12:32:33;;;;;;;;;;;23.60;53.10;;;;;;4145240;28;20494;-80
2023/06/21 12:35:00;;;;;;;;;;;23.50;53.00;;;;;;4146224;28;19914;-83
2023/06/21 12:37:21;;;;;;;;;;;23.50;52.80;;;;;;4131804;28;20119;-83
2023/06/21 12:39:53;;;;;;;;;;;23.40;52.70;;;;;;4141754;28;20288;-81
2023/06/21 12:42:14;;;;;;;;;;;23.40;53.10;;;;;;4147095;28;20008;-83
2023/06/21 12:44:37;;;;;;;;;;;23.30;52.90;;;;;;4149336;28;19944;-83
2023/06/21 12:47:00;;;;;;;;;;;23.30;53.40;;;;;;4144811;28;19913;-83
2023/06/21 12:49:24;;;;;;;;;;;23.30;53.30;;;;;;4145758;28;19917;-82
2023/06/21 12:51:45;;;;;;;;;;;23.30;53.10;;;;;;4144475;28;19921;-83
2023/06/21 12:54:07;;;;;;;;;;;23.30;52.90;;;;;;4125918;28;20396;-83
2023/06/21 12:56:32;;;;;;;;;;;23.30;52.80;;;;;;4142662;28;19928;-82
2023/06/21 12:58:53;;;;;;;;;;;23.30;52.40;;;;;;4145938;28;20144;-82
2023/06/21 13:01:14;;;;;;;;;;;23.20;52.20;;;;;;4128718;28;19924;-82
2023/06/21 13:03:35;;;;;;;;;;;23.20;52.70;;;;;;4140921;28;19921;-81
2023/06/21 13:05:56;;;;;;;;;;;23.10;52.60;;;;;;4129482;28;19926;-82
2023/06/21 13:08:17;;;;;;;;;;;23.10;52.70;;;;;;4139251;28;19917;-82
2023/06/21 13:10:38;;;;;;;;;;;23.00;52.60;;;;;;4145611;28;19972;-83
2023/06/21 13:12:59;;;;;;;;;;;23.00;52.80;;;;;;4147607;28;20335;-80
2023/06/21 13:15:19;;;;;;;;;;;23.00;52.90;;;;;;4145081;28;19913;-82
2023/06/21 13:17:40;;;;;;;;;;;22.90;52.50;;;;;;4142228;28;19917;-83
2023/06/21 13:20:01;;;;;;;;;;;22.90;52.70;;;;;;4142194;28;19921;-82
2023/06/21 13:22:22;;;;;;;;;;;22.80;52.80;;;;;;4142232;28;20327;-82
2023/06/21 13:24:43;;;;;;;;;;;22.90;53.50;;;;;;4144259;28;19984;-82
2023/06/21 13:27:04;;;;;;;;;;;22.90;53.80;;;;;;4140826;28;19921;-81
2023/06/21 13:29:25;;;;;;;;;;;22.90;53.40;;;;;;4140800;28;19960;-82
2023/06/21 13:31:45;;;;;;;;;;;22.80;53.40;;;;;;4123767;28;19914;-83
2023/06/21 13:34:06;;;;;;;;;;;22.90;53.40;;;;;;4144038;28;19925;-80
2023/06/21 13:36:27;;;;;;;;;;;22.90;53.20;;;;;;4141621;28;19933;-82
2023/06/21 13:38:48;;;;;;;;;;;22.90;53.40;;;;;;4128671;28;19960;-84
2023/06/21 13:41:09;;;;;;;;;;;22.90;53.30;;;;;;4143880;28;19921;-83
2023/06/21 13:43:31;;;;;;;;;;;22.90;53.40;;;;;;4144288;28;19922;-82
2023/06/21 13:45:51;;;;;;;;;;;22.90;53.60;;;;;;4139765;28;20099;-82
2023/06/21 13:48:13;;;;;;;;;;;23.00;53.70;;;;;;4141581;28;19920;-82
2023/06/21 13:50:36;;;;;;;;;;;23.00;53.30;;;;;;4146442;28;19922;-82
2023/06/21 13:52:58;;;;;;;;;;;23.10;53.00;;;;;;4146224;28;19928;-81
2023/06/21 13:55:19;;;;;;;;;;;23.20;53.10;;;;;;4138838;28;19921;-84
2023/06/21 13:57:42;;;;;;;;;;;23.20;53.10;;;;;;4139206;28;20391;-82
2023/06/21 14:00:04;;;;;;;;;;;23.20;52.60;;;;;;4123214;28;19922;-83
2023/06/21 14:02:25;;;;;;;;;;;23.30;52.40;;;;;;4138175;28;19922;-82